createdAt,value
2018-08-30T00:00:00.367Z,21.57
2018-08-30T00:02:12.580Z,21.51
2018-08-30T00:04:24.811Z,21.52
2018-08-30T00:06:37.027Z,21.50
2018-08-30T00:08:49.235Z,21.47
2018-08-30T00:11:01.437Z,21.42
2018-08-30T00:13:13.659Z,21.45
2018-08-30T00:15:25.829Z,21.43
2018-08-30T00:17:38.052Z,21.38
2018-08-30T00:19:50.239Z,21.33
2018-08-30T00:22:02.458Z,21.29
2018-08-30T00:24:14.639Z,21.25
2018-08-30T00:26:26.875Z,21.23
2018-08-30T00:28:39.068Z,21.19
2018-08-30T00:30:51.272Z,21.13
2018-08-30T00:33:03.536Z,21.12
2018-08-30T00:35:15.714Z,21.11
2018-08-30T00:37:27.911Z,21.08
2018-08-30T00:39:40.130Z,21.04
2018-08-30T00:41:52.313Z,21.02
2018-08-30T00:44:04.522Z,21.02
2018-08-30T00:46:16.739Z,21.01
2018-08-30T00:48:28.941Z,20.97
2018-08-30T00:50:41.123Z,20.90
2018-08-30T00:52:53.295Z,20.87
2018-08-30T00:55:05.502Z,20.85
2018-08-30T00:57:18.102Z,20.84
2018-08-30T00:59:30.301Z,20.84
2018-08-30T01:01:42.495Z,20.84
2018-08-30T01:03:54.726Z,20.85
2018-08-30T01:06:06.975Z,20.83
2018-08-30T01:08:19.163Z,20.78
2018-08-30T01:10:31.370Z,20.79
2018-08-30T01:12:49.103Z,20.79
2018-08-30T01:15:01.322Z,20.77
2018-08-30T01:17:13.521Z,20.79
2018-08-30T01:19:25.839Z,20.80
2018-08-30T01:21:38.028Z,20.81
2018-08-30T01:23:50.227Z,20.80
2018-08-30T01:26:02.482Z,20.77
2018-08-30T01:28:14.646Z,20.78
2018-08-30T01:30:26.839Z,20.73
2018-08-30T01:32:39.024Z,20.72
2018-08-30T01:34:51.204Z,20.72
2018-08-30T01:37:03.411Z,20.72
2018-08-30T01:39:15.554Z,20.73
2018-08-30T01:41:27.751Z,20.65
2018-08-30T01:43:39.957Z,20.57
2018-08-30T01:45:52.163Z,20.56
2018-08-30T01:48:04.388Z,20.53
2018-08-30T01:50:16.557Z,20.54
2018-08-30T01:52:28.796Z,20.50
2018-08-30T01:54:41.133Z,20.42
2018-08-30T01:56:53.286Z,20.40
2018-08-30T01:59:05.497Z,20.41
2018-08-30T02:01:17.727Z,20.40
2018-08-30T02:03:29.932Z,20.41
2018-08-30T02:05:42.122Z,20.39
2018-08-30T02:07:54.358Z,20.34
2018-08-30T02:10:06.619Z,20.28
2018-08-30T02:12:18.822Z,20.20
2018-08-30T02:14:31.011Z,20.14
2018-08-30T02:16:43.191Z,20.10
2018-08-30T02:18:55.417Z,20.06
2018-08-30T02:21:07.616Z,20.06
2018-08-30T02:23:19.801Z,20.04
2018-08-30T02:25:32.007Z,20.00
2018-08-30T02:27:44.230Z,19.97
2018-08-30T02:29:56.430Z,19.89
2018-08-30T02:32:08.666Z,19.80
2018-08-30T02:34:20.871Z,19.78
2018-08-30T02:36:33.065Z,19.75
2018-08-30T02:38:45.264Z,19.74
2018-08-30T02:40:57.478Z,19.74
2018-08-30T02:43:09.666Z,19.63
2018-08-30T02:45:21.882Z,19.53
2018-08-30T02:47:34.065Z,19.48
2018-08-30T02:49:46.258Z,19.41
2018-08-30T02:51:58.464Z,19.38
2018-08-30T02:54:10.683Z,19.31
2018-08-30T02:56:22.867Z,19.25
2018-08-30T02:58:35.045Z,19.23
2018-08-30T03:00:47.288Z,19.22
2018-08-30T03:02:59.437Z,19.22
2018-08-30T03:05:11.788Z,19.19
2018-08-30T03:07:23.962Z,19.14
2018-08-30T03:09:36.203Z,19.18
2018-08-30T03:11:48.401Z,19.22
2018-08-30T03:14:00.631Z,19.23
2018-08-30T03:16:12.817Z,19.19
2018-08-30T03:18:25.030Z,19.17
2018-08-30T03:20:37.201Z,19.17
2018-08-30T03:22:49.414Z,19.17
2018-08-30T03:25:01.923Z,19.15
2018-08-30T03:27:14.107Z,19.12
2018-08-30T03:29:26.287Z,19.12
2018-08-30T03:31:38.490Z,19.07
2018-08-30T03:33:50.664Z,19.07
2018-08-30T03:36:02.830Z,19.10
2018-08-30T03:38:15.129Z,19.12
2018-08-30T03:40:27.274Z,19.11
2018-08-30T03:42:39.495Z,19.13
2018-08-30T03:44:51.677Z,19.08
2018-08-30T03:47:03.980Z,19.07
2018-08-30T03:49:16.134Z,19.02
2018-08-30T03:51:28.322Z,18.99
2018-08-30T03:53:40.502Z,18.98
2018-08-30T03:55:52.692Z,19.01
2018-08-30T03:58:04.963Z,18.96
2018-08-30T04:00:17.168Z,18.93
2018-08-30T04:02:29.357Z,18.84
2018-08-30T04:04:41.649Z,18.87
2018-08-30T04:06:53.830Z,18.85
2018-08-30T04:09:07.155Z,18.82
2018-08-30T04:11:19.327Z,18.79
2018-08-30T04:13:31.571Z,18.77
2018-08-30T04:15:43.760Z,18.78
2018-08-30T04:17:55.991Z,18.76
2018-08-30T04:20:08.188Z,18.72
2018-08-30T04:22:20.378Z,18.75
2018-08-30T04:24:32.575Z,18.76
2018-08-30T04:26:44.783Z,18.76
2018-08-30T04:28:56.955Z,18.70
2018-08-30T04:31:09.176Z,18.70
2018-08-30T04:33:21.331Z,18.62
2018-08-30T04:35:33.583Z,18.66
2018-08-30T04:37:45.795Z,18.61
2018-08-30T04:39:57.996Z,18.64
2018-08-30T04:42:10.215Z,18.62
2018-08-30T04:44:22.418Z,18.58
2018-08-30T04:46:34.646Z,18.53
2018-08-30T04:48:46.910Z,18.51
2018-08-30T04:50:59.207Z,18.54
2018-08-30T04:53:11.428Z,18.58
2018-08-30T04:55:23.611Z,18.59
2018-08-30T04:57:35.795Z,18.59
2018-08-30T04:59:47.982Z,18.58
2018-08-30T05:02:00.228Z,18.53
2018-08-30T05:04:12.520Z,18.52
2018-08-30T05:06:24.678Z,18.55
2018-08-30T05:08:36.969Z,18.57
2018-08-30T05:10:49.238Z,18.60
2018-08-30T05:13:01.446Z,18.58
2018-08-30T05:15:13.643Z,18.60
2018-08-30T05:17:25.851Z,18.55
2018-08-30T05:19:38.064Z,18.58
2018-08-30T05:21:50.276Z,18.60
2018-08-30T05:24:02.518Z,18.54
2018-08-30T05:26:14.728Z,18.54
2018-08-30T05:28:26.959Z,18.50
2018-08-30T05:30:39.180Z,18.47
2018-08-30T05:32:51.407Z,18.48
2018-08-30T05:35:03.639Z,18.47
2018-08-30T05:37:15.849Z,18.49
2018-08-30T05:39:28.042Z,18.52
2018-08-30T05:41:40.254Z,18.49
2018-08-30T05:43:52.471Z,18.45
2018-08-30T05:46:04.649Z,18.43
2018-08-30T05:48:16.863Z,18.47
2018-08-30T05:50:29.056Z,18.48
2018-08-30T05:52:41.260Z,18.40
2018-08-30T05:54:53.452Z,18.37
2018-08-30T05:57:05.648Z,18.37
2018-08-30T05:59:17.870Z,18.37
2018-08-30T06:01:30.117Z,18.29
2018-08-30T06:03:42.341Z,18.24
2018-08-30T06:05:54.523Z,18.11
2018-08-30T06:08:06.794Z,18.10
2018-08-30T06:10:18.965Z,18.08
2018-08-30T06:12:31.238Z,18.06
2018-08-30T06:14:43.439Z,18.06
2018-08-30T06:16:55.666Z,18.05
2018-08-30T06:19:08.002Z,17.93
2018-08-30T06:21:20.192Z,17.88
2018-08-30T06:23:32.371Z,17.87
2018-08-30T06:25:44.602Z,17.87
2018-08-30T06:27:56.816Z,17.82
2018-08-30T06:30:09.010Z,17.85
2018-08-30T06:32:21.322Z,17.90
2018-08-30T06:34:33.516Z,17.93
2018-08-30T06:36:45.946Z,17.94
2018-08-30T06:38:58.136Z,17.92
2018-08-30T06:41:10.383Z,17.92
2018-08-30T06:43:22.574Z,17.89
2018-08-30T06:45:34.878Z,17.81
2018-08-30T06:47:46.999Z,17.78
2018-08-30T06:49:59.201Z,17.72
2018-08-30T06:52:11.402Z,17.69
2018-08-30T06:54:23.585Z,17.62
2018-08-30T06:56:35.767Z,17.61
2018-08-30T06:58:48.011Z,17.64
2018-08-30T07:01:00.175Z,17.61
2018-08-30T07:03:12.362Z,17.66
2018-08-30T07:05:24.614Z,17.71
2018-08-30T07:07:36.814Z,17.77
2018-08-30T07:09:49.091Z,17.83
2018-08-30T07:12:01.315Z,17.91
2018-08-30T07:14:13.531Z,17.97
2018-08-30T07:16:25.726Z,18.01
2018-08-30T07:18:37.998Z,18.01
2018-08-30T07:20:50.178Z,18.06
2018-08-30T07:23:02.561Z,18.11
2018-08-30T07:25:14.763Z,18.19
2018-08-30T07:27:26.943Z,18.26
2018-08-30T07:29:39.156Z,18.21
2018-08-30T07:31:51.350Z,18.27
2018-08-30T07:34:03.601Z,18.34
2018-08-30T07:36:15.787Z,18.42
2018-08-30T07:38:28.019Z,18.52
2018-08-30T07:40:40.265Z,18.58
2018-08-30T07:42:52.459Z,18.63
2018-08-30T07:45:04.727Z,18.66
2018-08-30T07:47:16.924Z,18.69
2018-08-30T07:49:29.097Z,18.69
2018-08-30T07:51:41.328Z,18.66
2018-08-30T07:53:53.462Z,18.59
2018-08-30T07:56:05.975Z,18.65
2018-08-30T07:58:18.250Z,18.78
2018-08-30T08:00:30.569Z,19.07
2018-08-30T08:02:42.843Z,19.47
2018-08-30T08:04:55.090Z,19.66
2018-08-30T08:07:07.337Z,19.67
2018-08-30T08:09:19.555Z,19.57
2018-08-30T08:11:31.760Z,19.52
2018-08-30T08:13:43.954Z,19.56
2018-08-30T08:15:56.230Z,19.70
2018-08-30T08:18:08.518Z,19.73
2018-08-30T08:20:20.706Z,19.71
2018-08-30T08:22:32.963Z,19.77
2018-08-30T08:24:45.273Z,19.98
2018-08-30T08:26:57.467Z,19.95
2018-08-30T08:29:09.670Z,19.85
2018-08-30T08:31:21.915Z,19.80
2018-08-30T08:33:34.183Z,19.61
2018-08-30T08:35:46.413Z,19.48
2018-08-30T08:37:58.623Z,19.45
2018-08-30T08:40:10.954Z,19.41
2018-08-30T08:42:23.139Z,19.30
2018-08-30T08:44:35.381Z,19.29
2018-08-30T08:46:47.610Z,19.29
2018-08-30T08:48:59.867Z,19.30
2018-08-30T08:51:12.167Z,19.27
2018-08-30T08:53:24.386Z,19.26
2018-08-30T08:55:36.636Z,19.30
2018-08-30T08:57:48.838Z,19.30
2018-08-30T09:00:01.083Z,19.34
2018-08-30T09:02:13.298Z,19.47
2018-08-30T09:04:25.530Z,19.56
2018-08-30T09:06:37.803Z,19.59
2018-08-30T09:08:49.994Z,19.68
2018-08-30T09:11:02.231Z,19.77
2018-08-30T09:13:14.439Z,19.87
2018-08-30T09:15:26.722Z,20.00
2018-08-30T09:17:38.943Z,20.16
2018-08-30T09:19:51.203Z,20.15
2018-08-30T09:22:03.470Z,20.16
2018-08-30T09:24:15.671Z,20.28
2018-08-30T09:26:27.915Z,20.27
2018-08-30T09:28:40.147Z,20.36
2018-08-30T09:30:52.357Z,20.47
2018-08-30T09:33:05.071Z,20.49
2018-08-30T09:35:17.249Z,20.43
2018-08-30T09:37:29.525Z,20.43
2018-08-30T09:39:42.531Z,20.33
2018-08-30T09:41:54.753Z,20.21
2018-08-30T09:44:07.075Z,20.15
2018-08-30T09:46:19.262Z,20.08
2018-08-30T09:48:31.463Z,19.98
2018-08-30T09:50:43.714Z,19.88
2018-08-30T09:52:55.914Z,19.75
2018-08-30T09:55:08.155Z,19.65
2018-08-30T09:57:20.691Z,19.61
2018-08-30T09:59:32.636Z,19.63
2018-08-30T10:01:50.077Z,19.59
2018-08-30T10:04:02.352Z,19.62
2018-08-30T10:06:14.584Z,19.72
2018-08-30T10:08:26.860Z,19.82
2018-08-30T10:10:39.067Z,19.87
2018-08-30T10:12:51.258Z,19.95
2018-08-30T10:15:03.543Z,19.99
2018-08-30T10:17:15.788Z,19.99
2018-08-30T10:19:27.998Z,19.99
2018-08-30T10:21:40.315Z,19.91
2018-08-30T10:23:52.590Z,19.87
2018-08-30T10:26:05.295Z,19.91
2018-08-30T10:28:17.521Z,20.02
2018-08-30T10:30:29.742Z,20.43
2018-08-30T10:32:41.987Z,20.84
2018-08-30T10:34:54.235Z,20.96
2018-08-30T10:37:06.577Z,21.04
2018-08-30T10:39:18.671Z,21.08
2018-08-30T10:41:30.911Z,21.15
2018-08-30T10:43:43.111Z,21.31
2018-08-30T10:45:55.315Z,21.38
2018-08-30T10:48:07.543Z,21.43
2018-08-30T10:50:21.924Z,21.46
2018-08-30T10:52:34.155Z,21.50
2018-08-30T10:54:46.424Z,21.51
2018-08-30T10:56:58.599Z,21.60
2018-08-30T10:59:10.796Z,21.84
2018-08-30T11:01:23.065Z,22.06
2018-08-30T11:03:35.388Z,22.19
2018-08-30T11:05:47.677Z,22.23
2018-08-30T11:08:00.098Z,22.34
2018-08-30T11:10:12.408Z,22.41
2018-08-30T11:12:24.635Z,22.36
2018-08-30T11:14:36.842Z,22.27
2018-08-30T11:16:49.074Z,22.22
2018-08-30T11:19:01.249Z,21.94
2018-08-30T11:21:13.500Z,21.79
2018-08-30T11:23:25.807Z,21.60
2018-08-30T11:25:38.010Z,21.50
2018-08-30T11:27:50.265Z,21.58
2018-08-30T11:30:02.498Z,21.71
2018-08-30T11:32:14.850Z,21.80
2018-08-30T11:34:27.086Z,21.74
2018-08-30T11:36:39.302Z,21.85
2018-08-30T11:38:51.502Z,22.01
2018-08-30T11:41:03.695Z,22.31
2018-08-30T11:43:16.013Z,22.47
2018-08-30T11:45:28.175Z,22.64
2018-08-30T11:47:40.403Z,22.66
2018-08-30T11:49:52.693Z,22.64
2018-08-30T11:52:05.076Z,22.46
2018-08-30T11:54:17.264Z,22.41
2018-08-30T11:56:29.423Z,22.35
2018-08-30T11:58:41.695Z,22.40
2018-08-30T12:00:53.945Z,22.58
2018-08-30T12:03:06.173Z,22.74
2018-08-30T12:05:18.486Z,22.87
2018-08-30T12:07:30.717Z,23.00
2018-08-30T12:09:42.906Z,22.88
2018-08-30T12:11:55.183Z,22.84
2018-08-30T12:14:07.402Z,22.88
2018-08-30T12:16:19.702Z,22.96
2018-08-30T12:18:31.945Z,23.00
2018-08-30T12:20:44.279Z,22.81
2018-08-30T12:22:56.406Z,22.63
2018-08-30T12:25:08.646Z,22.43
2018-08-30T12:27:20.930Z,22.44
2018-08-30T12:29:33.173Z,22.53
2018-08-30T12:31:45.545Z,22.55
2018-08-30T12:33:57.861Z,22.65
2018-08-30T12:36:10.075Z,22.78
2018-08-30T12:38:22.313Z,22.88
2018-08-30T12:40:34.560Z,22.93
2018-08-30T12:42:46.712Z,22.99
2018-08-30T12:44:59.287Z,23.05
2018-08-30T12:47:11.502Z,23.07
2018-08-30T12:49:23.798Z,23.06
2018-08-30T12:51:36.184Z,23.02
2018-08-30T12:53:48.318Z,22.94
2018-08-30T12:56:00.566Z,22.96
2018-08-30T12:58:12.811Z,23.04
2018-08-30T13:00:25.100Z,23.12
2018-08-30T13:02:37.330Z,23.21
2018-08-30T13:04:49.823Z,23.18
2018-08-30T13:07:01.856Z,23.09
2018-08-30T13:09:15.565Z,22.93
2018-08-30T13:11:27.610Z,22.84
2018-08-30T13:13:39.945Z,22.87
2018-08-30T13:15:52.053Z,22.92
2018-08-30T13:18:04.192Z,22.97
2018-08-30T13:20:16.445Z,23.02
2018-08-30T13:22:28.819Z,23.03
2018-08-30T13:24:41.118Z,23.09
2018-08-30T13:26:53.273Z,23.03
2018-08-30T13:29:05.587Z,22.91
2018-08-30T13:31:17.778Z,22.87
2018-08-30T13:33:29.959Z,22.89
2018-08-30T13:35:42.385Z,22.98
2018-08-30T13:37:54.711Z,22.99
2018-08-30T13:40:06.805Z,23.06
2018-08-30T13:42:19.196Z,23.14
2018-08-30T13:44:31.291Z,23.20
2018-08-30T13:46:43.580Z,23.23
2018-08-30T13:48:55.622Z,23.24
2018-08-30T13:51:07.870Z,23.19
2018-08-30T13:53:20.352Z,23.15
2018-08-30T13:55:32.354Z,23.13
2018-08-30T13:57:44.925Z,23.11
2018-08-30T13:59:57.211Z,23.10
2018-08-30T14:02:09.024Z,23.04
2018-08-30T14:04:21.381Z,23.01
2018-08-30T14:06:33.492Z,23.05
2018-08-30T14:08:45.870Z,23.06
2018-08-30T14:10:58.039Z,23.09
2018-08-30T14:13:10.300Z,23.09
2018-08-30T14:15:22.783Z,23.06
2018-08-30T14:17:34.425Z,23.08
2018-08-30T14:19:46.741Z,23.10
2018-08-30T14:21:59.007Z,23.03
2018-08-30T14:24:11.402Z,23.06
2018-08-30T14:26:23.499Z,23.08
2018-08-30T14:28:35.633Z,23.10
2018-08-30T14:30:47.822Z,23.11
2018-08-30T14:33:00.037Z,23.12
2018-08-30T14:35:12.277Z,23.06
2018-08-30T14:37:24.525Z,22.99
2018-08-30T14:39:36.736Z,22.88
2018-08-30T14:41:49.081Z,22.96
2018-08-30T14:44:01.208Z,22.98
2018-08-30T14:46:13.418Z,22.96
2018-08-30T14:48:25.630Z,22.96
2018-08-30T14:50:37.856Z,22.94
2018-08-30T14:52:50.144Z,22.87
2018-08-30T14:55:02.307Z,22.87
2018-08-30T14:57:14.589Z,22.90
2018-08-30T14:59:26.804Z,22.87
2018-08-30T15:01:39.017Z,22.93
2018-08-30T15:03:51.226Z,22.97
2018-08-30T15:06:03.553Z,22.96
2018-08-30T15:08:15.695Z,22.91
2018-08-30T15:10:27.939Z,22.85
2018-08-30T15:12:40.155Z,22.80
2018-08-30T15:14:52.361Z,22.79
2018-08-30T15:17:04.646Z,22.80
2018-08-30T15:19:16.840Z,22.80
2018-08-30T15:21:29.113Z,22.78
2018-08-30T15:23:41.368Z,22.81
2018-08-30T15:25:53.618Z,22.82
2018-08-30T15:28:06.109Z,22.80
2018-08-30T15:30:18.380Z,22.73
2018-08-30T15:32:30.512Z,22.66
2018-08-30T15:34:42.750Z,22.68
2018-08-30T15:36:54.924Z,22.68
2018-08-30T15:39:08.014Z,22.68
2018-08-30T15:41:20.257Z,22.62
2018-08-30T15:43:32.572Z,22.52
2018-08-30T15:45:44.700Z,22.49
2018-08-30T15:47:56.951Z,22.48
2018-08-30T15:50:09.178Z,22.52
2018-08-30T15:52:21.388Z,22.53
2018-08-30T15:54:33.642Z,22.56
2018-08-30T15:56:45.853Z,22.59
2018-08-30T15:58:58.108Z,22.56
2018-08-30T16:01:10.394Z,22.54
2018-08-30T16:03:22.598Z,22.52
2018-08-30T16:05:34.851Z,22.50
2018-08-30T16:07:47.106Z,22.43
2018-08-30T16:09:59.435Z,22.34
2018-08-30T16:12:11.551Z,22.29
2018-08-30T16:14:23.796Z,22.21
2018-08-30T16:16:36.006Z,22.21
2018-08-30T16:18:48.248Z,22.18
2018-08-30T16:21:00.735Z,22.10
2018-08-30T16:23:25.576Z,22.08
2018-08-30T16:25:37.796Z,22.03
2018-08-30T16:27:50.059Z,22.05
2018-08-30T16:30:02.327Z,21.98
2018-08-30T16:32:14.598Z,21.96
2018-08-30T16:34:26.854Z,21.99
2018-08-30T16:36:39.095Z,21.98
2018-08-30T16:38:51.302Z,22.00
2018-08-30T16:41:03.579Z,21.90
2018-08-30T16:43:15.842Z,21.79
2018-08-30T16:45:28.110Z,21.69
2018-08-30T16:47:40.378Z,21.68
2018-08-30T16:49:52.594Z,21.60
2018-08-30T16:52:04.854Z,21.47
2018-08-30T16:54:17.055Z,21.34
2018-08-30T16:56:29.268Z,21.29
2018-08-30T16:58:41.506Z,21.18
2018-08-30T17:00:53.811Z,21.08
2018-08-30T17:03:06.411Z,20.98
2018-08-30T17:05:18.657Z,20.89
2018-08-30T17:07:30.970Z,20.80
2018-08-30T17:09:43.204Z,20.69
2018-08-30T17:11:55.531Z,20.59
2018-08-30T17:14:07.805Z,20.52
2018-08-30T17:16:20.134Z,20.50
2018-08-30T17:18:32.422Z,20.48
2018-08-30T17:20:49.499Z,20.45
2018-08-30T17:23:01.723Z,20.43
2018-08-30T17:25:14.023Z,20.41
2018-08-30T17:27:26.228Z,20.39
2018-08-30T17:29:38.472Z,20.38
2018-08-30T17:31:50.798Z,20.32
2018-08-30T17:34:03.061Z,20.26
2018-08-30T17:36:15.314Z,20.28
2018-08-30T17:38:27.573Z,20.26
2018-08-30T17:40:39.845Z,20.21
2018-08-30T17:42:52.128Z,20.16
2018-08-30T17:45:04.581Z,20.11
2018-08-30T17:47:16.855Z,20.09
2018-08-30T17:49:29.107Z,20.09
2018-08-30T17:51:41.446Z,20.08
2018-08-30T17:53:53.639Z,20.05
2018-08-30T17:56:06.076Z,20.06
2018-08-30T17:58:18.314Z,20.06
2018-08-30T18:00:30.583Z,20.05
2018-08-30T18:02:43.954Z,20.04
2018-08-30T18:04:56.243Z,20.01
2018-08-30T18:07:08.615Z,20.02
2018-08-30T18:09:20.794Z,20.02
2018-08-30T18:11:33.095Z,20.01
2018-08-30T18:13:45.305Z,19.96
2018-08-30T18:15:57.581Z,19.95
2018-08-30T18:18:09.906Z,19.94
2018-08-30T18:20:22.160Z,19.92
2018-08-30T18:22:34.410Z,19.94
2018-08-30T18:24:46.662Z,19.91
2018-08-30T18:26:58.951Z,19.91
2018-08-30T18:29:11.413Z,19.88
2018-08-30T18:31:23.698Z,19.84
2018-08-30T18:33:35.874Z,19.81
2018-08-30T18:35:48.123Z,19.80
2018-08-30T18:38:00.416Z,19.77
2018-08-30T18:40:12.689Z,19.77
2018-08-30T18:42:25.012Z,19.73
2018-08-30T18:44:37.183Z,19.71
2018-08-30T18:46:49.455Z,19.69
2018-08-30T18:49:01.727Z,19.67
2018-08-30T18:51:13.966Z,19.65
2018-08-30T18:53:26.200Z,19.62
2018-08-30T18:55:38.429Z,19.60
2018-08-30T18:57:50.629Z,19.60
2018-08-30T19:00:02.939Z,19.58
2018-08-30T19:02:15.211Z,19.59
2018-08-30T19:04:27.565Z,19.59
2018-08-30T19:06:39.811Z,19.58
2018-08-30T19:08:52.357Z,19.58
2018-08-30T19:11:04.974Z,19.54
2018-08-30T19:13:17.451Z,19.51
2018-08-30T19:15:35.324Z,19.49
2018-08-30T19:17:53.277Z,19.48
2018-08-30T19:20:05.755Z,19.47
2018-08-30T19:22:18.354Z,19.47
2018-08-30T19:24:36.236Z,19.47
2018-08-30T19:26:48.792Z,19.46
2018-08-30T19:29:01.083Z,19.45
2018-08-30T19:31:13.572Z,19.46
2018-08-30T19:33:25.907Z,19.47
2018-08-30T19:35:43.854Z,19.43
2018-08-30T19:37:56.244Z,19.41
2018-08-30T19:40:13.128Z,19.39
2018-08-30T19:42:25.483Z,19.38
2018-08-30T19:44:37.744Z,19.35
2018-08-30T19:46:50.018Z,19.33
2018-08-30T19:49:02.437Z,19.30
2018-08-30T19:51:14.684Z,19.27
2018-08-30T19:53:26.931Z,19.25
2018-08-30T19:55:39.201Z,19.18
2018-08-30T19:57:51.450Z,19.15
2018-08-30T20:00:03.828Z,19.10
2018-08-30T20:02:16.114Z,19.08
2018-08-30T20:04:28.403Z,19.06
2018-08-30T20:06:40.655Z,19.02
2018-08-30T20:08:52.903Z,18.99
2018-08-30T20:11:05.354Z,19.00
2018-08-30T20:13:17.747Z,18.98
2018-08-30T20:15:29.921Z,18.96
2018-08-30T20:17:42.157Z,18.93
2018-08-30T20:19:54.411Z,18.94
2018-08-30T20:22:08.804Z,18.92
2018-08-30T20:24:21.010Z,18.88
2018-08-30T20:26:33.273Z,18.84
2018-08-30T20:28:45.483Z,18.82
2018-08-30T20:30:57.745Z,18.78
2018-08-30T20:33:09.991Z,18.74
2018-08-30T20:35:22.260Z,18.74
2018-08-30T20:37:35.353Z,18.77
2018-08-30T20:39:47.683Z,18.76
2018-08-30T20:41:59.903Z,18.75
2018-08-30T20:44:12.106Z,18.76
2018-08-30T20:46:24.340Z,18.74
2018-08-30T20:48:36.642Z,18.74
2018-08-30T20:50:48.852Z,18.74
2018-08-30T20:53:01.059Z,18.72
2018-08-30T20:55:13.283Z,18.72
2018-08-30T20:57:25.983Z,18.66
2018-08-30T20:59:38.255Z,18.65
2018-08-30T21:01:50.468Z,18.63
2018-08-30T21:04:02.695Z,18.60
2018-08-30T21:06:14.934Z,18.55
2018-08-30T21:08:27.208Z,18.54
2018-08-30T21:10:39.510Z,18.50
2018-08-30T21:12:51.722Z,18.50
2018-08-30T21:15:03.964Z,18.51
2018-08-30T21:17:16.180Z,18.47
2018-08-30T21:19:28.430Z,18.45
2018-08-30T21:21:40.616Z,18.44
2018-08-30T21:23:53.074Z,18.39
2018-08-30T21:26:05.591Z,18.38
2018-08-30T21:28:17.806Z,18.37
2018-08-30T21:30:30.046Z,18.32
2018-08-30T21:32:42.306Z,18.26
2018-08-30T21:34:54.511Z,18.23
2018-08-30T21:37:06.743Z,18.20
2018-08-30T21:39:18.931Z,18.21
2018-08-30T21:41:31.164Z,18.22
2018-08-30T21:43:43.378Z,18.21
2018-08-30T21:45:55.697Z,18.23
2018-08-30T21:48:08.006Z,18.21
2018-08-30T21:50:20.294Z,18.17
2018-08-30T21:52:32.466Z,18.16
2018-08-30T21:54:44.727Z,18.16
2018-08-30T21:56:56.922Z,18.13
2018-08-30T21:59:09.134Z,18.13
2018-08-30T22:01:21.403Z,18.13
2018-08-30T22:03:33.614Z,18.15
2018-08-30T22:05:45.871Z,18.13
2018-08-30T22:07:58.130Z,18.13
2018-08-30T22:10:10.323Z,18.13
2018-08-30T22:12:22.578Z,18.14
2018-08-30T22:14:34.771Z,18.15
2018-08-30T22:16:47.023Z,18.15
2018-08-30T22:18:59.255Z,18.15
2018-08-30T22:21:11.415Z,18.15
2018-08-30T22:23:23.655Z,18.14
2018-08-30T22:25:35.861Z,18.14
2018-08-30T22:27:48.082Z,18.12
2018-08-30T22:30:00.291Z,18.07
2018-08-30T22:32:12.522Z,18.02
2018-08-30T22:34:24.713Z,17.99
2018-08-30T22:36:36.905Z,18.03
2018-08-30T22:38:49.121Z,18.02
2018-08-30T22:41:01.426Z,17.99
2018-08-30T22:43:13.652Z,17.94
2018-08-30T22:45:25.816Z,17.95
2018-08-30T22:47:38.027Z,17.95
2018-08-30T22:49:50.202Z,17.97
2018-08-30T22:52:02.403Z,17.98
2018-08-30T22:54:14.600Z,17.98
2018-08-30T22:56:26.785Z,17.95
2018-08-30T22:58:39.011Z,17.94
2018-08-30T23:00:51.166Z,17.89
2018-08-30T23:03:03.410Z,17.87
2018-08-30T23:05:15.623Z,17.82
2018-08-30T23:07:27.814Z,17.78
2018-08-30T23:09:40.003Z,17.82
2018-08-30T23:11:52.212Z,17.79
2018-08-30T23:14:04.474Z,17.80
2018-08-30T23:16:16.654Z,17.83
2018-08-30T23:18:28.840Z,17.84
2018-08-30T23:20:41.055Z,17.86
2018-08-30T23:22:53.257Z,17.87
2018-08-30T23:25:05.632Z,17.85
2018-08-30T23:27:17.808Z,17.84
2018-08-30T23:29:30.030Z,17.85
2018-08-30T23:31:42.217Z,17.88
2018-08-30T23:33:54.446Z,17.89
2018-08-30T23:36:06.675Z,17.86
2018-08-30T23:38:18.862Z,17.85
2018-08-30T23:40:31.070Z,17.86
2018-08-30T23:42:43.215Z,17.85
2018-08-30T23:44:55.401Z,17.85
2018-08-30T23:47:07.612Z,17.83
2018-08-30T23:49:19.844Z,17.80
2018-08-30T23:51:32.093Z,17.76
2018-08-30T23:53:44.267Z,17.76
2018-08-30T23:55:56.448Z,17.75
2018-08-30T23:58:20.053Z,17.75
